Terminal Aerodrome Forecast
Issued by NWS Cleveland, OH

Home | Current Version | Previous Version | Graphics & Text | Print | Product List | Glossary On
Versions: 1 2 3 4 5 6 7 8 9 10 11 12 13 14 15 16 17 18 19 20
000
FTUS41 KCLE 250829 AAA
TAFMFD
TAF AMD
KMFD 250829Z 2508/2606 34004KT P6SM SCT028
      TEMPO 2508/2512 BKN028
     FM251400 36008KT P6SM BKN030
     FM251900 01008KT P6SM SCT040
     FM260200 06004KT P6SM FEW250=

USA.gov is the U.S. government's official web portal to all federal, state and local government web resources and services.